createdAt,value
2023-11-23T00:01:53.336Z,10.37
2023-11-23T00:04:21.180Z,10.40
2023-11-23T00:06:47.710Z,11.37
2023-11-23T00:09:14.240Z,10.90
2023-11-23T00:11:41.165Z,10.50
2023-11-23T00:14:07.466Z,10.80
2023-11-23T00:16:33.809Z,11.33
2023-11-23T00:19:00.126Z,10.27
2023-11-23T00:21:27.773Z,9.90
2023-11-23T00:23:54.380Z,9.40
2023-11-23T00:26:20.793Z,8.87
2023-11-23T00:28:47.128Z,9.77
2023-11-23T00:31:13.649Z,10.77
2023-11-23T00:33:40.068Z,10.13
2023-11-23T00:36:06.765Z,9.83
2023-11-23T00:38:35.031Z,9.47
2023-11-23T00:41:01.892Z,10.07
2023-11-23T00:43:28.263Z,8.53
2023-11-23T00:45:54.544Z,9.40
2023-11-23T00:48:20.904Z,9.50
2023-11-23T00:50:47.674Z,8.60
2023-11-23T00:53:13.979Z,8.50
2023-11-23T00:55:40.502Z,8.83
2023-11-23T00:58:06.920Z,8.87
2023-11-23T01:00:33.408Z,8.70
2023-11-23T01:03:00.215Z,8.60
2023-11-23T01:05:27.773Z,8.60
2023-11-23T01:07:54.207Z,7.60
2023-11-23T01:10:20.525Z,7.50
2023-11-23T01:12:46.944Z,7.77
2023-11-23T01:15:13.516Z,7.80
2023-11-23T01:17:40.146Z,7.17
2023-11-23T01:20:06.952Z,6.53
2023-11-23T01:22:33.309Z,5.67
2023-11-23T01:24:59.593Z,4.63
2023-11-23T01:27:25.947Z,4.23
2023-11-23T01:29:52.269Z,4.03
2023-11-23T01:32:18.625Z,5.00
2023-11-23T01:34:44.997Z,4.10
2023-11-23T01:37:11.305Z,4.67
2023-11-23T01:39:37.583Z,4.83
2023-11-23T01:42:04.290Z,4.33
2023-11-23T01:44:30.626Z,4.13
2023-11-23T01:46:57.307Z,4.57
2023-11-23T01:49:24.116Z,4.33
2023-11-23T01:51:50.449Z,4.40
2023-11-23T01:54:17.329Z,4.80
2023-11-23T01:56:45.134Z,5.37
2023-11-23T01:59:13.113Z,5.07
2023-11-23T02:01:39.732Z,5.17
2023-11-23T02:04:06.189Z,4.87
2023-11-23T02:06:32.476Z,5.10
2023-11-23T02:08:58.842Z,5.53
2023-11-23T02:11:25.136Z,5.77
2023-11-23T02:13:51.475Z,5.27
2023-11-23T02:16:17.831Z,5.90
2023-11-23T02:18:44.299Z,5.73
2023-11-23T02:21:10.899Z,6.17
2023-11-23T02:23:37.367Z,6.70
2023-11-23T02:26:03.709Z,6.93
2023-11-23T02:28:33.616Z,6.83
2023-11-23T02:30:59.985Z,6.80
2023-11-23T02:33:26.387Z,7.40
2023-11-23T02:35:53.045Z,7.40
2023-11-23T02:38:19.487Z,7.87
2023-11-23T02:40:45.749Z,8.23
2023-11-23T02:43:12.253Z,8.00
2023-11-23T02:45:38.659Z,8.87
2023-11-23T02:48:06.075Z,8.93
2023-11-23T02:50:32.593Z,8.80
2023-11-23T02:52:59.445Z,8.83
2023-11-23T02:55:25.736Z,8.07
2023-11-23T02:57:52.119Z,9.50
2023-11-23T03:00:18.594Z,9.57
2023-11-23T03:02:45.083Z,9.80
2023-11-23T03:05:11.800Z,10.37
2023-11-23T03:07:38.219Z,11.07
2023-11-23T03:10:04.695Z,10.27
2023-11-23T03:12:30.978Z,10.47
2023-11-23T03:14:57.450Z,11.03
2023-11-23T03:17:23.906Z,11.80
2023-11-23T03:19:50.304Z,11.47
2023-11-23T03:22:16.647Z,11.17
2023-11-23T03:24:43.541Z,12.23
2023-11-23T03:27:13.911Z,11.77
2023-11-23T03:29:40.303Z,12.10
2023-11-23T03:32:06.833Z,12.00
2023-11-23T03:34:33.162Z,11.53
2023-11-23T03:36:59.488Z,11.77
2023-11-23T03:39:25.826Z,11.13
2023-11-23T03:41:52.278Z,10.90
2023-11-23T03:44:19.007Z,12.87
2023-11-23T03:46:45.320Z,12.13
2023-11-23T03:49:12.743Z,12.30
2023-11-23T03:51:39.059Z,12.90
2023-11-23T03:54:05.588Z,11.37
2023-11-23T03:56:32.012Z,12.60
2023-11-23T03:58:58.336Z,12.40
2023-11-23T04:01:24.847Z,12.60
2023-11-23T04:03:51.298Z,12.57
2023-11-23T04:06:18.844Z,12.10
2023-11-23T04:08:48.737Z,11.50
2023-11-23T04:11:15.516Z,11.80
2023-11-23T04:13:42.194Z,11.93
2023-11-23T04:16:09.785Z,12.83
2023-11-23T04:18:36.188Z,13.27
2023-11-23T04:21:02.626Z,13.10
2023-11-23T04:23:28.922Z,12.57
2023-11-23T04:25:55.331Z,12.57
2023-11-23T04:28:21.636Z,12.77
2023-11-23T04:30:48.699Z,12.87
2023-11-23T04:33:15.411Z,15.70
2023-11-23T04:35:41.830Z,18.47
2023-11-23T04:38:08.485Z,13.47
2023-11-23T04:40:34.769Z,13.37
2023-11-23T04:43:01.054Z,13.47
2023-11-23T04:45:27.635Z,23.70
2023-11-23T04:47:54.032Z,14.10
2023-11-23T04:50:22.505Z,13.53
2023-11-23T04:52:49.211Z,12.90
2023-11-23T04:55:15.535Z,12.73
2023-11-23T04:57:41.933Z,13.10
2023-11-23T05:00:11.345Z,14.07
2023-11-23T05:02:37.963Z,12.60
2023-11-23T05:05:04.415Z,14.10
2023-11-23T05:07:30.685Z,12.73
2023-11-23T05:09:57.366Z,13.13
2023-11-23T05:12:24.076Z,12.73
2023-11-23T05:14:50.487Z,13.27
2023-11-23T05:17:16.847Z,13.60
2023-11-23T05:19:43.507Z,11.53
2023-11-23T05:22:10.445Z,11.27
2023-11-23T05:24:36.938Z,11.57
2023-11-23T05:27:03.383Z,13.13
2023-11-23T05:29:29.774Z,11.30
2023-11-23T05:31:56.068Z,11.43
2023-11-23T05:34:22.353Z,14.10
2023-11-23T05:36:48.631Z,13.23
2023-11-23T05:39:15.687Z,13.57
2023-11-23T05:41:42.054Z,13.10
2023-11-23T05:44:08.439Z,12.77
2023-11-23T05:46:34.997Z,12.00
2023-11-23T05:49:01.418Z,13.70
2023-11-23T05:51:29.134Z,14.27
2023-11-23T05:53:55.557Z,13.67
2023-11-23T05:56:21.945Z,13.70
2023-11-23T05:58:48.248Z,13.73
2023-11-23T06:01:14.673Z,15.00
2023-11-23T06:03:41.494Z,16.30
2023-11-23T06:06:08.325Z,15.67
2023-11-23T06:08:36.055Z,15.83
2023-11-23T06:11:02.343Z,17.57
2023-11-23T06:13:28.806Z,18.13
2023-11-23T06:15:55.164Z,20.70
2023-11-23T06:18:22.961Z,15.43
2023-11-23T06:20:49.494Z,16.17
2023-11-23T06:23:15.960Z,18.57
2023-11-23T06:25:42.369Z,34.03
2023-11-23T06:28:14.964Z,18.97
2023-11-23T06:30:42.681Z,19.93
2023-11-23T06:33:09.488Z,17.17
2023-11-23T06:35:35.917Z,22.03
2023-11-23T06:38:02.227Z,20.57
2023-11-23T06:40:29.747Z,20.77
2023-11-23T06:42:56.025Z,20.80
2023-11-23T06:45:22.420Z,18.03
2023-11-23T06:47:48.953Z,19.27
2023-11-23T06:50:15.475Z,20.37
2023-11-23T06:52:41.852Z,17.67
2023-11-23T06:55:08.481Z,18.47
2023-11-23T06:57:34.779Z,16.40
2023-11-23T07:00:11.817Z,14.90
2023-11-23T07:02:38.170Z,15.70
2023-11-23T07:05:05.013Z,25.43
2023-11-23T07:07:33.365Z,14.83
2023-11-23T07:09:59.688Z,14.73
2023-11-23T07:12:27.583Z,15.00
2023-11-23T07:14:54.140Z,15.63
2023-11-23T07:17:20.454Z,14.60
2023-11-23T07:19:46.796Z,13.73
2023-11-23T07:22:13.155Z,15.90
2023-11-23T07:24:39.497Z,14.67
2023-11-23T07:27:05.859Z,14.13
2023-11-23T07:29:32.798Z,14.07
2023-11-23T07:31:59.142Z,12.13
2023-11-23T07:34:26.115Z,13.63
2023-11-23T07:36:52.712Z,13.30
2023-11-23T07:39:19.044Z,12.90
2023-11-23T07:41:45.460Z,14.17
2023-11-23T07:44:11.753Z,13.60
2023-11-23T07:46:38.130Z,13.77
2023-11-23T07:49:04.484Z,12.87
2023-11-23T07:51:30.834Z,13.40
2023-11-23T07:53:57.168Z,13.50
2023-11-23T07:56:23.717Z,12.37
2023-11-23T07:58:50.902Z,13.25
2023-11-23T08:01:17.321Z,13.40
2023-11-23T08:03:43.819Z,13.75
2023-11-23T08:06:11.180Z,13.10
2023-11-23T08:08:37.654Z,13.18
2023-11-23T08:11:05.659Z,13.90
2023-11-23T08:13:33.097Z,13.73
2023-11-23T08:16:02.496Z,13.23
2023-11-23T08:18:36.830Z,13.20
2023-11-23T08:21:10.075Z,12.63
2023-11-23T08:23:36.467Z,13.32
2023-11-23T08:26:04.501Z,13.02
2023-11-23T08:28:30.853Z,12.52
2023-11-23T08:30:57.149Z,12.93
2023-11-23T08:33:24.751Z,12.95
2023-11-23T08:35:54.405Z,12.23
2023-11-23T08:38:21.039Z,12.47
2023-11-23T08:40:56.590Z,12.60
2023-11-23T08:43:22.972Z,12.60
2023-11-23T08:45:49.330Z,10.90
2023-11-23T08:48:17.005Z,12.40
2023-11-23T08:50:43.440Z,12.00
2023-11-23T08:53:09.878Z,11.90
2023-11-23T08:55:36.345Z,11.53
2023-11-23T08:58:02.647Z,11.27
2023-11-23T09:00:29.872Z,11.07
2023-11-23T09:02:56.417Z,11.38
2023-11-23T09:05:23.285Z,11.02
2023-11-23T09:08:27.230Z,12.00
2023-11-23T09:10:55.494Z,10.70
2023-11-23T09:13:22.095Z,10.38
2023-11-23T09:15:48.765Z,9.80
2023-11-23T09:18:15.158Z,9.52
2023-11-23T09:20:41.463Z,9.07
2023-11-23T09:23:07.804Z,9.40
2023-11-23T09:25:34.943Z,9.98
2023-11-23T09:28:01.568Z,8.77
2023-11-23T09:30:28.031Z,9.23
2023-11-23T09:32:54.568Z,8.52
2023-11-23T09:35:20.983Z,8.05
2023-11-23T09:37:47.271Z,7.93
2023-11-23T09:40:17.488Z,8.13
2023-11-23T09:42:44.377Z,8.10
2023-11-23T09:45:13.680Z,7.55
2023-11-23T09:47:40.610Z,7.70
2023-11-23T09:50:07.749Z,7.78
2023-11-23T09:52:36.074Z,7.40
2023-11-23T09:55:03.760Z,8.32
2023-11-23T09:57:30.120Z,7.10
2023-11-23T09:59:56.815Z,7.10
2023-11-23T10:02:24.703Z,7.28
2023-11-23T10:04:51.324Z,7.45
2023-11-23T10:07:17.868Z,7.70
2023-11-23T10:09:44.490Z,8.02
2023-11-23T10:12:10.863Z,7.90
2023-11-23T10:14:37.165Z,7.20
2023-11-23T10:17:03.480Z,6.90
2023-11-23T10:19:29.960Z,7.30
2023-11-23T10:21:59.993Z,6.95
2023-11-23T10:24:26.780Z,7.70
2023-11-23T10:26:53.757Z,7.00
2023-11-23T10:29:24.933Z,7.80
2023-11-23T10:31:51.934Z,6.45
2023-11-23T10:34:19.857Z,7.18
2023-11-23T10:36:48.232Z,7.53
2023-11-23T10:39:17.540Z,7.65
2023-11-23T10:41:45.882Z,7.03
2023-11-23T10:44:12.634Z,8.52
2023-11-23T10:46:41.751Z,10.20
2023-11-23T10:49:09.293Z,7.93
2023-11-23T10:51:36.400Z,7.38
2023-11-23T10:54:04.042Z,7.05
2023-11-23T10:56:31.170Z,7.18
2023-11-23T10:58:59.497Z,8.10
2023-11-23T11:01:27.280Z,7.13
2023-11-23T11:03:54.061Z,8.23
2023-11-23T11:06:22.829Z,7.75
2023-11-23T11:08:49.693Z,14.60
2023-11-23T11:11:25.882Z,13.85
2023-11-23T11:14:04.377Z,10.95
2023-11-23T11:16:35.146Z,9.48
2023-11-23T11:19:08.078Z,7.45
2023-11-23T11:21:42.699Z,7.88
2023-11-23T11:24:20.027Z,8.07
2023-11-23T11:26:47.943Z,7.55
2023-11-23T11:29:15.930Z,7.65
2023-11-23T11:31:42.839Z,8.40
2023-11-23T11:34:15.601Z,8.18
2023-11-23T11:36:42.861Z,8.18
2023-11-23T11:39:11.899Z,8.18
2023-11-23T11:41:39.129Z,8.15
2023-11-23T11:44:06.454Z,8.23
2023-11-23T11:46:34.657Z,8.63
2023-11-23T11:49:01.597Z,8.52
2023-11-23T11:51:31.666Z,9.57
2023-11-23T11:54:00.621Z,9.23
2023-11-23T11:56:28.022Z,9.45
2023-11-23T11:58:54.413Z,8.93
2023-11-23T12:01:21.002Z,9.48
2023-11-23T12:03:48.145Z,9.38
2023-11-23T12:06:14.777Z,10.45
2023-11-23T12:08:41.113Z,10.15
2023-11-23T12:11:07.528Z,15.32
2023-11-23T12:13:35.472Z,11.00
2023-11-23T12:16:02.569Z,11.60
2023-11-23T12:18:32.697Z,11.45
2023-11-23T12:20:59.772Z,15.40
2023-11-23T12:23:27.778Z,13.35
2023-11-23T12:25:55.115Z,12.40
2023-11-23T12:28:21.757Z,14.27
2023-11-23T12:30:48.465Z,19.55
2023-11-23T12:33:14.912Z,21.80
2023-11-23T12:35:41.428Z,24.55
2023-11-23T12:38:07.955Z,28.75
2023-11-23T12:40:34.544Z,28.63
2023-11-23T12:43:01.203Z,22.52
2023-11-23T12:45:28.192Z,19.27
2023-11-23T12:47:54.637Z,31.15
2023-11-23T12:50:23.009Z,37.85
2023-11-23T12:52:49.838Z,24.35
2023-11-23T12:55:19.354Z,20.27
2023-11-23T12:57:48.453Z,18.75
2023-11-23T13:00:15.453Z,21.33
2023-11-23T13:02:42.550Z,22.00
2023-11-23T13:05:09.804Z,23.60
2023-11-23T13:07:40.301Z,22.48
2023-11-23T13:10:07.291Z,26.02
2023-11-23T13:12:33.825Z,24.80
2023-11-23T13:15:00.277Z,25.05
2023-11-23T13:17:27.515Z,24.83
2023-11-23T13:19:54.157Z,29.08
2023-11-23T13:22:20.603Z,25.17
2023-11-23T13:24:49.756Z,22.17
2023-11-23T13:27:17.339Z,25.92
2023-11-23T13:29:43.950Z,30.52
2023-11-23T13:32:11.610Z,26.27
2023-11-23T13:34:37.908Z,22.95
2023-11-23T13:37:05.736Z,25.65
2023-11-23T13:39:32.858Z,23.50
2023-11-23T13:41:59.340Z,22.50
2023-11-23T13:44:26.009Z,36.35
2023-11-23T13:46:53.236Z,32.03
2023-11-23T13:49:19.709Z,40.05
2023-11-23T13:51:46.415Z,34.40
2023-11-23T13:54:13.007Z,28.63
2023-11-23T13:56:42.552Z,33.38
2023-11-23T13:59:10.112Z,27.40
2023-11-23T14:01:36.598Z,26.38
2023-11-23T14:04:03.037Z,20.50
2023-11-23T14:06:32.299Z,25.60
2023-11-23T14:08:58.910Z,29.63
2023-11-23T14:11:25.858Z,22.75
2023-11-23T14:13:56.139Z,23.85
2023-11-23T14:16:23.007Z,16.05
2023-11-23T14:18:49.618Z,25.90
2023-11-23T14:21:16.077Z,17.08
2023-11-23T14:23:42.585Z,16.70
2023-11-23T14:26:09.685Z,16.73
2023-11-23T14:28:36.064Z,15.45
2023-11-23T14:31:03.593Z,15.30
2023-11-23T14:33:30.582Z,16.50
2023-11-23T14:35:57.921Z,16.60
2023-11-23T14:38:26.402Z,16.90
2023-11-23T14:40:54.449Z,16.27
2023-11-23T14:43:22.676Z,17.23
2023-11-23T14:45:49.293Z,16.27
2023-11-23T14:48:16.062Z,17.27
2023-11-23T14:50:42.512Z,15.38
2023-11-23T14:53:08.842Z,15.10
2023-11-23T14:55:35.656Z,15.32
2023-11-23T14:58:02.119Z,13.60
2023-11-23T15:00:30.677Z,13.50
2023-11-23T15:02:59.837Z,12.13
2023-11-23T15:05:26.199Z,12.85
2023-11-23T15:07:53.549Z,14.20
2023-11-23T15:10:20.597Z,12.38
2023-11-23T15:12:52.870Z,11.88
2023-11-23T15:15:20.207Z,12.10
2023-11-23T15:17:54.481Z,13.50
2023-11-23T15:20:23.118Z,12.77
2023-11-23T15:22:49.638Z,11.75
2023-11-23T15:25:15.974Z,11.57
2023-11-23T15:27:43.865Z,11.18
2023-11-23T15:30:12.207Z,10.10
2023-11-23T15:32:39.468Z,12.25
2023-11-23T15:35:12.195Z,11.18
2023-11-23T15:37:39.138Z,10.63
2023-11-23T15:40:10.512Z,12.07
2023-11-23T15:42:37.379Z,11.50
2023-11-23T15:45:04.005Z,13.13
2023-11-23T15:47:30.379Z,10.45
2023-11-23T15:49:56.717Z,10.95
2023-11-23T15:52:23.114Z,10.00
2023-11-23T15:54:49.437Z,9.75
2023-11-23T15:57:15.828Z,10.23
2023-11-23T15:59:42.184Z,9.80
2023-11-23T16:02:08.636Z,10.35
2023-11-23T16:04:35.041Z,9.90
2023-11-23T16:07:03.704Z,11.60
2023-11-23T16:09:30.542Z,11.55
2023-11-23T16:11:58.788Z,11.63
2023-11-23T16:14:25.114Z,9.70
2023-11-23T16:16:51.537Z,10.52
2023-11-23T16:19:18.282Z,13.93
2023-11-23T16:21:44.731Z,12.32
2023-11-23T16:24:11.847Z,14.23
2023-11-23T16:26:38.634Z,12.07
2023-11-23T16:29:10.858Z,14.70
2023-11-23T16:31:42.197Z,13.73
2023-11-23T16:34:09.637Z,13.55
2023-11-23T16:36:39.791Z,13.93
2023-11-23T16:39:08.441Z,14.10
2023-11-23T16:41:35.120Z,14.88
2023-11-23T16:44:01.900Z,14.90
2023-11-23T16:46:28.274Z,15.35
2023-11-23T16:48:56.030Z,15.85
2023-11-23T16:51:22.514Z,17.77
2023-11-23T16:53:50.912Z,21.98
2023-11-23T16:56:18.635Z,20.25
2023-11-23T16:58:45.345Z,20.02
2023-11-23T17:01:11.710Z,22.17
2023-11-23T17:03:38.241Z,20.58
2023-11-23T17:06:05.015Z,20.45
2023-11-23T17:08:31.370Z,21.85
2023-11-23T17:10:59.297Z,32.33
2023-11-23T17:13:26.281Z,24.83
2023-11-23T17:15:52.724Z,23.30
2023-11-23T17:18:19.819Z,28.73
2023-11-23T17:20:46.281Z,28.60
2023-11-23T17:23:13.322Z,32.47
2023-11-23T17:25:42.806Z,21.70
2023-11-23T17:28:09.219Z,26.83
2023-11-23T17:30:35.704Z,27.33
2023-11-23T17:33:02.183Z,17.92
2023-11-23T17:35:29.226Z,21.70
2023-11-23T17:37:55.844Z,16.00
2023-11-23T17:40:22.295Z,17.23
2023-11-23T17:42:48.747Z,16.80
2023-11-23T17:45:15.155Z,17.80
2023-11-23T17:47:41.984Z,15.63
2023-11-23T17:50:12.493Z,15.02
2023-11-23T17:52:39.163Z,15.32
2023-11-23T17:55:05.807Z,14.85
2023-11-23T17:57:33.998Z,14.80
2023-11-23T18:00:01.696Z,14.73
2023-11-23T18:02:28.227Z,13.95
2023-11-23T18:04:57.131Z,13.90
2023-11-23T18:07:23.689Z,13.10
2023-11-23T18:09:52.754Z,13.07
2023-11-23T18:12:19.152Z,12.70
2023-11-23T18:14:45.582Z,11.95
2023-11-23T18:17:12.596Z,12.02
2023-11-23T18:19:39.050Z,12.60
2023-11-23T18:22:05.798Z,11.95
2023-11-23T18:24:32.538Z,11.88
2023-11-23T18:27:00.655Z,10.85
2023-11-23T18:29:27.096Z,10.13
2023-11-23T18:31:53.505Z,10.73
2023-11-23T18:34:19.969Z,10.55
2023-11-23T18:36:46.554Z,10.32
2023-11-23T18:39:14.966Z,11.18
2023-11-23T18:41:43.464Z,11.18
2023-11-23T18:44:11.920Z,10.80
2023-11-23T18:46:39.365Z,10.10
2023-11-23T18:49:05.987Z,9.90
2023-11-23T18:51:32.514Z,10.73
2023-11-23T18:53:59.027Z,20.90
2023-11-23T18:56:25.342Z,10.93
2023-11-23T18:58:51.705Z,10.63
2023-11-23T19:01:18.585Z,10.13
2023-11-23T19:03:46.661Z,8.68
2023-11-23T19:06:13.163Z,10.30
2023-11-23T19:08:39.597Z,8.65
2023-11-23T19:11:06.282Z,9.38
2023-11-23T19:13:32.719Z,7.45
2023-11-23T19:15:59.187Z,7.38
2023-11-23T19:18:25.945Z,7.40
2023-11-23T19:20:52.770Z,7.47
2023-11-23T19:23:19.248Z,7.18
2023-11-23T19:25:50.081Z,6.70
2023-11-23T19:28:16.940Z,6.70
2023-11-23T19:30:44.119Z,6.80
2023-11-23T19:33:11.414Z,6.63
2023-11-23T19:35:37.938Z,6.35
2023-11-23T19:38:07.069Z,6.35
2023-11-23T19:40:33.458Z,6.82
2023-11-23T19:43:00.353Z,6.35
2023-11-23T19:45:28.136Z,6.70
2023-11-23T19:47:55.124Z,7.20
2023-11-23T19:50:22.453Z,10.25
2023-11-23T19:52:51.815Z,6.70
2023-11-23T19:55:19.125Z,7.10
2023-11-23T19:57:45.542Z,6.80
2023-11-23T20:00:12.624Z,6.93
2023-11-23T20:02:39.145Z,6.72
2023-11-23T20:05:06.168Z,6.55
2023-11-23T20:07:33.627Z,6.13
2023-11-23T20:10:00.040Z,6.88
2023-11-23T20:12:26.711Z,6.00
2023-11-23T20:14:53.209Z,6.30
2023-11-23T20:17:20.909Z,5.88
2023-11-23T20:19:50.341Z,6.00
2023-11-23T20:22:17.095Z,7.00
2023-11-23T20:24:43.486Z,6.15
2023-11-23T20:27:12.702Z,6.20
2023-11-23T20:29:39.099Z,6.60
2023-11-23T20:32:08.280Z,11.02
2023-11-23T20:34:34.766Z,6.43
2023-11-23T20:37:01.297Z,6.50
2023-11-23T20:39:31.681Z,6.45
2023-11-23T20:41:59.056Z,6.70
2023-11-23T20:44:25.714Z,7.00
2023-11-23T20:46:52.731Z,7.00
2023-11-23T20:49:19.519Z,7.30
2023-11-23T20:51:45.990Z,10.98
2023-11-23T20:54:12.437Z,6.40
2023-11-23T20:56:39.375Z,7.35
2023-11-23T20:59:06.028Z,6.60
2023-11-23T21:01:36.495Z,7.03
2023-11-23T21:04:04.352Z,6.78
2023-11-23T21:06:31.566Z,7.00
2023-11-23T21:08:58.934Z,7.57
2023-11-23T21:11:25.272Z,7.40
2023-11-23T21:13:51.657Z,7.15
2023-11-23T21:16:17.988Z,6.97
2023-11-23T21:18:44.384Z,6.82
2023-11-23T21:21:10.871Z,7.07
2023-11-23T21:23:37.847Z,7.18
2023-11-23T21:26:05.387Z,7.60
2023-11-23T21:28:32.921Z,7.75
2023-11-23T21:30:59.462Z,7.80
2023-11-23T21:33:26.066Z,8.40
2023-11-23T21:35:52.536Z,7.20
2023-11-23T21:38:18.811Z,7.03
2023-11-23T21:40:45.126Z,7.13
2023-11-23T21:43:11.431Z,7.40
2023-11-23T21:45:37.808Z,7.07
2023-11-23T21:48:04.436Z,7.60
2023-11-23T21:50:32.154Z,8.85
2023-11-23T21:52:59.915Z,8.15
2023-11-23T21:55:26.379Z,11.13
2023-11-23T21:57:52.764Z,8.77
2023-11-23T22:00:19.405Z,7.68
2023-11-23T22:02:45.957Z,8.27
2023-11-23T22:05:12.368Z,7.18
2023-11-23T22:07:38.759Z,8.35
2023-11-23T22:10:05.442Z,6.47
2023-11-23T22:12:31.803Z,8.55
2023-11-23T22:14:59.044Z,7.72
2023-11-23T22:17:26.277Z,7.45
2023-11-23T22:19:53.107Z,6.68
2023-11-23T22:22:20.160Z,5.97
2023-11-23T22:24:46.637Z,7.03
2023-11-23T22:27:13.090Z,5.32
2023-11-23T22:29:39.473Z,5.40
2023-11-23T22:32:06.932Z,6.35
2023-11-23T22:34:33.465Z,6.90
2023-11-23T22:37:00.019Z,4.80
2023-11-23T22:39:26.577Z,5.65
2023-11-23T22:41:53.091Z,7.00
2023-11-23T22:44:19.842Z,7.10
2023-11-23T22:46:46.395Z,6.47
2023-11-23T22:49:13.114Z,8.35
2023-11-23T22:51:39.611Z,7.53
2023-11-23T22:54:07.181Z,5.72
2023-11-23T22:56:33.923Z,6.15
2023-11-23T22:59:00.301Z,5.53
2023-11-23T23:01:26.800Z,7.40
2023-11-23T23:03:53.287Z,5.38
2023-11-23T23:06:19.918Z,6.43
2023-11-23T23:08:49.777Z,5.93
2023-11-23T23:11:16.209Z,5.95
2023-11-23T23:13:43.769Z,5.65
2023-11-23T23:16:10.488Z,5.00
2023-11-23T23:18:36.966Z,5.47
2023-11-23T23:21:03.358Z,5.40
2023-11-23T23:23:29.758Z,4.88
2023-11-23T23:25:56.082Z,5.60
2023-11-23T23:28:29.713Z,5.75
2023-11-23T23:30:58.891Z,5.97
2023-11-23T23:33:25.478Z,6.22
2023-11-23T23:35:53.089Z,6.13
2023-11-23T23:38:19.629Z,6.85
2023-11-23T23:40:50.457Z,8.48
2023-11-23T23:43:17.566Z,8.40
2023-11-23T23:45:43.997Z,8.23
2023-11-23T23:48:10.359Z,8.82
2023-11-23T23:50:36.728Z,9.20
2023-11-23T23:53:03.469Z,9.38
2023-11-23T23:55:29.818Z,9.30
2023-11-23T23:57:57.940Z,8.57
